| time (UTC) | temp F | wind direction | speed knots | gust knots | rain 1hr in | rain 24hr in | rain mn in | humidity % | barometer mb |
| 20260509043556 | 61 | 189 | 0.0 | 0.0 | 0.00 | 0.00 | 0.00 | 89 | 1013.4 |
| 20260509043107 | 61 | 189 | 0.0 | 0.0 | 0.00 | 0.00 | 0.00 | 89 | 1013.7 |
| 20260509042551 | 61 | 189 | 0.0 | 0.0 | 0.00 | 0.00 | 0.00 | 89 | 1013.8 |
| 20260509041548 | 61 | 193 | 0.0 | 0.0 | 0.00 | 0.00 | 0.00 | 89 | 1013.5 |
| 20260509040549 | 61 | 193 | 0.0 | 0.0 | 0.00 | 0.00 | 0.00 | 89 | 1013.8 |
| 20260509040503 | 60 | 193 | 0.0 | 0.0 | 0.00 | 0.00 | 0.00 | 89 | 1013.1 |
| 20260509040128 | 61 | 193 | 0.0 | 0.0 | 0.00 | 0.00 | 0.00 | 89 | 1013.9 |
| 20260509035605 | 61 | 193 | 0.0 | 0.0 | 0.00 | 0.00 | 0.00 | 89 | 1014.0 |
| 20260509035054 | 61 | 193 | 0.0 | 0.0 | 0.00 | 0.00 | 0.00 | 88 | 1014.0 |
| 20260509034051 | 61 | 193 | 0.0 | 0.0 | 0.00 | 0.00 | 0.00 | 88 | 1014.1 |
| 20260509033053 | 61 | 193 | 0.0 | 0.0 | 0.00 | 0.00 | 0.00 | 88 | 1014.1 |
| 20260509032600 | 61 | 193 | 0.0 | 0.0 | 0.00 | 0.00 | 0.00 | 87 | 1014.0 |
| 20260509032046 | 61 | 193 | 0.0 | 0.0 | 0.00 | 0.00 | 0.00 | 87 | 1014.1 |
| 20260509031556 | 61 | 193 | 0.0 | 0.0 | 0.00 | 0.00 | 0.00 | 87 | 1014.1 |
| 20260509031101 | 61 | 193 | 0.0 | 0.0 | 0.00 | 0.00 | 0.00 | 86 | 1014.1 |
| 20260509030549 | 61 | 193 | 0.0 | 0.0 | 0.00 | 0.00 | 0.00 | 86 | 1014.0 |
| 20260509030501 | 61 | 193 | 0.0 | 0.0 | 0.00 | 0.00 | 0.00 | 86 | 1013.3 |
| 20260509030129 | 62 | 193 | 0.0 | 0.0 | 0.00 | 0.00 | 0.00 | 85 | 1014.1 |
| 20260509030028 | 61 | 193 | 0.0 | 0.0 | 0.00 | 0.00 | 0.00 | 85 | 1013.4 |
| 20260509025546 | 62 | 193 | 0.0 | 0.0 | 0.00 | 0.00 | 0.00 | 85 | 1014.2 |
| 20260509025058 | 62 | 193 | 0.0 | 0.0 | 0.00 | 0.00 | 0.00 | 85 | 1014.1 |
| 20260509024545 | 62 | 193 | 0.0 | 0.0 | 0.00 | 0.00 | 0.00 | 85 | 1014.1 |
| 20260509024058 | 62 | 193 | 0.0 | 0.0 | 0.00 | 0.00 | 0.00 | 85 | 1014.1 |
| 20260509023544 | 62 | 193 | 0.0 | 0.0 | 0.00 | 0.00 | 0.00 | 84 | 1014.2 |
| 20260509023050 | 63 | 193 | 0.0 | 0.0 | 0.00 | 0.00 | 0.00 | 83 | 1014.2 |
| 20260509022048 | 63 | 193 | 0.0 | 0.9 | 0.00 | 0.00 | 0.00 | 82 | 1014.2 |
| 20260509021600 | 63 | 193 | 0.0 | 0.9 | 0.00 | 0.00 | 0.00 | 82 | 1014.3 |
| 20260509020602 | 63 | 193 | 0.0 | 0.9 | 0.00 | 0.00 | 0.00 | 82 | 1014.5 |
| 20260509020110 | 63 | 193 | 0.0 | 0.9 | 0.00 | 0.00 | 0.00 | 81 | 1014.5 |
| 20260509020021 | 62 | 193 | 0.0 | 0.9 | 0.00 | 0.00 | 0.00 | 81 | 1013.7 |
| 20260509015549 | 63 | 193 | 0.0 | 0.9 | 0.00 | 0.00 | 0.00 | 81 | 1014.4 |
| 20260509014550 | 63 | 193 | 0.9 | 1.7 | 0.00 | 0.00 | 0.00 | 81 | 1014.3 |
| 20260509013058 | 63 | 193 | 0.0 | 0.9 | 0.00 | 0.00 | 0.00 | 80 | 1014.4 |
| 20260509012602 | 63 | 193 | 0.0 | 0.9 | 0.00 | 0.00 | 0.00 | 80 | 1014.2 |
| 20260509012049 | 63 | 193 | 0.0 | 1.7 | 0.00 | 0.00 | 0.00 | 80 | 1014.3 |
| 20260509011602 | 63 | 193 | 0.9 | 1.7 | 0.00 | 0.00 | 0.00 | 80 | 1014.2 |
| 20260509011054 | 63 | 193 | 0.0 | 0.0 | 0.00 | 0.00 | 0.00 | 80 | 1014.4 |
| 20260509010602 | 63 | 193 | 0.0 | 0.0 | 0.00 | 0.00 | 0.00 | 80 | 1014.3 |
| 20260509005600 | 63 | 193 | 0.0 | 0.0 | 0.00 | 0.00 | 0.00 | 79 | 1014.5 |
| 20260509005107 | 63 | 193 | 0.0 | 0.0 | 0.00 | 0.00 | 0.00 | 79 | 1014.6 |
| 20260509005021 | 63 | 193 | 0.0 | 0.0 | 0.00 | 0.00 | 0.00 | 79 | 1014.0 |
| 20260509004549 | 64 | 193 | 0.0 | 0.0 | 0.00 | 0.00 | 0.00 | 79 | 1014.7 |
| 20260509003549 | 64 | 193 | 0.0 | 1.7 | 0.00 | 0.00 | 0.00 | 78 | 1014.6 |
| 20260509003058 | 64 | 193 | 0.9 | 1.7 | 0.00 | 0.00 | 0.00 | 78 | 1014.6 |
| 20260509002053 | 64 | 193 | 0.9 | 2.6 | 0.00 | 0.00 | 0.00 | 77 | 1014.5 |
| 20260509001603 | 64 | 193 | 0.9 | 3.5 | 0.00 | 0.00 | 0.00 | 76 | 1014.6 |
| 20260509001519 | 64 | 193 | 0.0 | 3.5 | 0.00 | 0.00 | 0.00 | 76 | 1014.0 |
| 20260509001046 | 65 | 193 | 1.7 | 5.2 | 0.00 | 0.00 | 0.00 | 76 | 1014.4 |
| 20260509000556 | 65 | 177 | 0.9 | 4.3 | 0.00 | 0.00 | 0.00 | 76 | 1014.5 |
| 20260509000107 | 65 | 192 | 1.7 | 4.3 | 0.00 | 0.00 | 0.00 | 75 | 1014.4 |
| 20260508235551 | 65 | 157 | 0.9 | 4.3 | 0.00 | 0.00 | 0.00 | 75 | 1014.4 |
| 20260508235102 | 65 | 182 | 1.7 | 3.5 | 0.00 | 0.00 | 0.00 | 74 | 1014.5 |
| 20260508234552 | 65 | 169 | 0.9 | 2.6 | 0.00 | 0.00 | 0.00 | 74 | 1014.6 |
| 20260508234059 | 65 | 150 | 0.9 | 3.5 | 0.00 | 0.00 | 0.00 | 74 | 1014.7 |
| 20260508233550 | 65 | 186 | 0.9 | 4.3 | 0.00 | 0.00 | 0.00 | 74 | 1014.3 |
| 20260508233052 | 66 | 178 | 0.9 | 3.5 | 0.00 | 0.00 | 0.00 | 73 | 1014.4 |
| 20260508232556 | 66 | 175 | 1.7 | 3.5 | 0.00 | 0.00 | 0.00 | 73 | 1014.6 |
| 20260508232044 | 66 | 169 | 0.9 | 5.2 | 0.00 | 0.00 | 0.00 | 73 | 1014.6 |
| 20260508231554 | 66 | 173 | 1.7 | 5.2 | 0.00 | 0.00 | 0.00 | 73 | 1014.5 |
| 20260508225552 | 67 | 177 | 0.9 | 3.5 | 0.00 | 0.00 | 0.00 | 71 | 1014.0 |
| 20260508224547 | 67 | 131 | 0.9 | 3.5 | 0.00 | 0.00 | 0.00 | 71 | 1013.7 |
| 20260508223548 | 67 | 169 | 1.7 | 5.2 | 0.00 | 0.00 | 0.00 | 70 | 1013.8 |
| 20260508223059 | 68 | 104 | 0.9 | 4.3 | 0.00 | 0.00 | 0.00 | 70 | 1013.8 |
| 20260508222600 | 67 | 223 | 2.6 | 4.3 | 0.00 | 0.00 | 0.00 | 69 | 1013.8 |
| 20260508221559 | 68 | 158 | 0.0 | 2.6 | 0.00 | 0.00 | 0.00 | 68 | 1014.1 |
| 20260508221105 | 68 | 158 | 0.9 | 2.6 | 0.00 | 0.00 | 0.00 | 68 | 1014.2 |
| 20260508220552 | 68 | 184 | 1.7 | 4.3 | 0.00 | 0.00 | 0.00 | 68 | 1014.1 |
| 20260508215548 | 68 | 173 | 0.9 | 3.5 | 0.00 | 0.00 | 0.00 | 67 | 1014.3 |
| 20260508215056 | 68 | 169 | 0.9 | 3.5 | 0.00 | 0.00 | 0.00 | 65 | 1014.0 |
| 20260508214601 | 68 | 193 | 0.9 | 3.5 | 0.00 | 0.00 | 0.00 | 66 | 1013.9 |
| 20260508214049 | 68 | 108 | 0.9 | 5.2 | 0.00 | 0.00 | 0.00 | 66 | 1014.0 |
| 20260508213557 | 68 | 278 | 2.6 | 5.2 | 0.00 | 0.00 | 0.00 | 65 | 1014.3 |
| 20260508212551 | 68 | 148 | 1.7 | 6.1 | 0.00 | 0.00 | 0.00 | 64 | 1013.9 |
| 20260508212102 | 68 | 157 | 1.7 | 4.3 | 0.00 | 0.00 | 0.00 | 66 | 1014.2 |
| 20260508211551 | 68 | 159 | 1.7 | 5.2 | 0.00 | 0.00 | 0.00 | 66 | 1014.3 |
| 20260508210608 | 69 | 186 | 1.7 | 5.2 | 0.00 | 0.00 | 0.00 | 65 | 1014.3 |
| 20260508210125 | 69 | 148 | 0.9 | 4.3 | 0.00 | 0.00 | 0.00 | 64 | 1014.5 |
| 20260508210018 | 68 | 148 | 1.7 | 4.3 | 0.00 | 0.00 | 0.00 | 64 | 1013.9 |
| 20260508205545 | 69 | 186 | 2.6 | 4.3 | 0.00 | 0.00 | 0.00 | 63 | 1014.3 |
| 20260508205056 | 69 | 84 | 1.7 | 4.3 | 0.00 | 0.00 | 0.00 | 62 | 1014.2 |
| 20260508204602 | 69 | 194 | 2.6 | 4.3 | 0.00 | 0.00 | 0.00 | 63 | 1014.3 |
| 20260508203557 | 69 | 90 | 0.9 | 5.2 | 0.00 | 0.00 | 0.00 | 63 | 1014.2 |
| 20260508203107 | 69 | 113 | 1.7 | 5.2 | 0.00 | 0.00 | 0.00 | 63 | 1014.3 |
| 20260508202552 | 69 | 92 | 1.7 | 3.5 | 0.00 | 0.00 | 0.00 | 62 | 1014.3 |
| 20260508202100 | 69 | 103 | 0.9 | 6.1 | 0.00 | 0.00 | 0.00 | 62 | 1014.2 |
| 20260508201101 | 70 | 84 | 2.6 | 4.3 | 0.00 | 0.00 | 0.00 | 62 | 1014.2 |
| 20260508200553 | 70 | 193 | 0.9 | 2.6 | 0.00 | 0.00 | 0.00 | 63 | 1014.3 |
| 20260508195602 | 70 | 155 | 1.7 | 4.3 | 0.00 | 0.00 | 0.00 | 61 | 1014.3 |
| 20260508195049 | 70 | 112 | 1.7 | 6.1 | 0.00 | 0.00 | 0.00 | 60 | 1014.4 |
| 20260508194559 | 70 | 192 | 2.6 | 6.1 | 0.00 | 0.00 | 0.00 | 58 | 1014.3 |
| 20260508194047 | 70 | 200 | 1.7 | 5.2 | 0.00 | 0.00 | 0.00 | 58 | 1014.3 |
| 20260508192551 | 70 | 200 | 0.0 | 3.5 | 0.00 | 0.00 | 0.00 | 57 | 1014.8 |
| 20260508192101 | 70 | 202 | 1.7 | 3.5 | 0.00 | 0.00 | 0.00 | 56 | 1014.8 |
| 20260508191552 | 70 | 88 | 1.7 | 3.5 | 0.00 | 0.00 | 0.00 | 56 | 1014.9 |
| 20260508191102 | 70 | 176 | 0.9 | 3.5 | 0.00 | 0.00 | 0.00 | 55 | 1014.9 |
| 20260508190554 | 69 | 53 | 0.0 | 1.7 | 0.00 | 0.00 | 0.00 | 57 | 1015.0 |
| 20260508190106 | 70 | 53 | 0.9 | 2.6 | 0.00 | 0.00 | 0.00 | 56 | 1014.9 |
| 20260508185549 | 70 | 134 | 0.9 | 1.7 | 0.00 | 0.00 | 0.00 | 57 | 1015.0 |
| 20260508184603 | 70 | 101 | 1.7 | 4.3 | 0.00 | 0.00 | 0.00 | 53 | 1015.1 |
| 20260508184051 | 71 | 87 | 1.7 | 3.5 | 0.00 | 0.00 | 0.00 | 54 | 1015.2 |
| 20260508183559 | 71 | 158 | 1.7 | 4.3 | 0.00 | 0.00 | 0.00 | 55 | 1015.4 |
| 20260508183049 | 70 | 108 | 1.7 | 7.0 | 0.00 | 0.00 | 0.00 | 57 | 1015.6 |
| 20260508182555 | 71 | 195 | 4.3 | 7.0 | 0.00 | 0.00 | 0.00 | 56 | 1015.6 |
| 20260508182044 | 70 | 91 | 1.7 | 4.3 | 0.00 | 0.00 | 0.00 | 57 | 1015.5 |
| 20260508181554 | 70 | 105 | 0.9 | 3.5 | 0.00 | 0.00 | 0.00 | 59 | 1015.5 |
| 20260508181059 | 70 | 96 | 1.7 | 4.3 | 0.00 | 0.00 | 0.00 | 55 | 1015.7 |
| 20260508180549 | 70 | 169 | 1.7 | 4.3 | 0.00 | 0.00 | 0.00 | 56 | 1015.8 |
| 20260508180101 | 69 | 165 | 1.7 | 3.5 | 0.00 | 0.00 | 0.00 | 55 | 1015.9 |
| 20260508175605 | 70 | 109 | 1.7 | 3.5 | 0.00 | 0.01 | 0.00 | 55 | 1015.9 |
| 20260508175050 | 70 | 86 | 0.9 | 3.5 | 0.00 | 0.01 | 0.00 | 55 | 1015.9 |
| 20260508174558 | 70 | 110 | 0.9 | 3.5 | 0.00 | 0.01 | 0.00 | 52 | 1016.0 |
| 20260508174049 | 70 | 153 | 0.9 | 5.2 | 0.00 | 0.01 | 0.00 | 55 | 1015.9 |
| 20260508173602 | 70 | 204 | 3.5 | 7.0 | 0.00 | 0.01 | 0.00 | 52 | 1016.0 |
| 20260508173053 | 69 | 120 | 3.5 | 7.0 | 0.00 | 0.01 | 0.00 | 55 | 1016.2 |
| 20260508172554 | 69 | 112 | 1.7 | 3.5 | 0.00 | 0.01 | 0.00 | 55 | 1016.2 |
| 20260508171045 | 69 | 117 | 1.7 | 4.3 | 0.00 | 0.01 | 0.00 | 60 | 1016.6 |
| 20260508170554 | 69 | 93 | 1.7 | 4.3 | 0.00 | 0.01 | 0.00 | 61 | 1016.7 |
| 20260508170505 | 68 | 162 | 0.9 | 4.3 | 0.00 | 0.01 | 0.00 | 59 | 1016.1 |
| 20260508170132 | 68 | 153 | 1.7 | 3.5 | 0.00 | 0.01 | 0.00 | 60 | 1016.7 |
| 20260508170020 | 68 | 122 | 0.9 | 3.5 | 0.00 | 0.01 | 0.00 | 61 | 1016.2 |
| 20260508165546 | 68 | 147 | 0.9 | 3.5 | 0.00 | 0.01 | 0.00 | 61 | 1016.8 |
| 20260508165058 | 67 | 139 | 0.9 | 3.5 | 0.00 | 0.01 | 0.00 | 63 | 1016.6 |
| 20260508164606 | 67 | 151 | 0.9 | 4.3 | 0.00 | 0.01 | 0.00 | 62 | 1016.9 |
| 20260508164054 | 67 | 219 | 1.7 | 4.3 | 0.00 | 0.01 | 0.00 | 60 | 1017.0 |
| 20260508163602 | 66 | 115 | 0.0 | 2.6 | 0.00 | 0.01 | 0.00 | 66 | 1016.9 |
| 20260508163051 | 66 | 115 | 0.0 | 2.6 | 0.00 | 0.01 | 0.00 | 62 | 1017.1 |
| 20260508162600 | 67 | 155 | 0.9 | 1.7 | 0.00 | 0.01 | 0.00 | 63 | 1017.4 |
| 20260508162106 | 67 | 158 | 0.0 | 4.3 | 0.00 | 0.01 | 0.00 | 62 | 1017.4 |
| 20260508161551 | 67 | 195 | 1.7 | 4.3 | 0.00 | 0.01 | 0.00 | 61 | 1017.8 |
| 20260508161058 | 67 | 169 | 1.7 | 4.3 | 0.00 | 0.01 | 0.00 | 60 | 1017.4 |
| 20260508160547 | 67 | 186 | 1.7 | 4.3 | 0.00 | 0.01 | 0.00 | 63 | 1017.4 |
| 20260508155547 | 67 | 110 | 1.7 | 2.6 | 0.00 | 0.01 | 0.00 | 61 | 1017.5 |
| 20260508155052 | 67 | 103 | 0.9 | 3.5 | 0.00 | 0.01 | 0.00 | 61 | 1017.6 |
| 20260508155007 | 66 | 103 | 0.0 | 3.5 | 0.00 | 0.01 | 0.00 | 61 | 1017.0 |
| 20260508153602 | 67 | 94 | 1.7 | 5.2 | 0.00 | 0.01 | 0.00 | 61 | 1017.9 |
| 20260508153053 | 67 | 152 | 2.6 | 5.2 | 0.00 | 0.01 | 0.00 | 65 | 1018.0 |
| 20260508152556 | 67 | 338 | 1.7 | 3.5 | 0.00 | 0.01 | 0.00 | 62 | 1017.9 |
| 20260508152047 | 66 | 66 | 0.9 | 3.5 | 0.00 | 0.01 | 0.00 | 67 | 1018.0 |
| 20260508151601 | 66 | 169 | 1.7 | 4.3 | 0.00 | 0.01 | 0.00 | 68 | 1017.9 |
| 20260508150603 | 65 | 168 | 1.7 | 5.2 | 0.00 | 0.01 | 0.00 | 68 | 1017.9 |
| 20260508150054 | 65 | 107 | 1.7 | 5.2 | 0.00 | 0.01 | 0.00 | 69 | 1017.9 |
| 20260508145602 | 64 | 158 | 1.7 | 5.2 | 0.00 | 0.03 | 0.00 | 68 | 1018.0 |
| 20260508145052 | 64 | 164 | 1.7 | 5.2 | 0.00 | 0.03 | 0.00 | 70 | 1017.9 |
| 20260508144544 | 63 | 114 | 1.7 | 3.5 | 0.00 | 0.03 | 0.00 | 71 | 1017.9 |
| 20260508144051 | 63 | 104 | 0.9 | 1.7 | 0.00 | 0.03 | 0.00 | 74 | 1018.0 |
| 20260508143603 | 63 | 104 | 0.9 | 1.7 | 0.00 | 0.03 | 0.00 | 74 | 1018.1 |
| 20260508142545 | 62 | 100 | 0.9 | 2.6 | 0.00 | 0.03 | 0.00 | 75 | 1018.1 |
| 20260508142055 | 62 | 103 | 0.9 | 2.6 | 0.00 | 0.03 | 0.00 | 74 | 1018.2 |
| 20260508141545 | 62 | 112 | 0.9 | 2.6 | 0.00 | 0.03 | 0.00 | 77 | 1018.2 |
| 20260508141056 | 61 | 142 | 0.0 | 0.0 | 0.00 | 0.03 | 0.00 | 76 | 1018.1 |
| 20260508140546 | 61 | 125 | 0.0 | 1.7 | 0.00 | 0.03 | 0.00 | 75 | 1018.0 |
| 20260508140053 | 61 | 125 | 0.9 | 1.7 | 0.00 | 0.03 | 0.00 | 76 | 1018.0 |
| 20260508135601 | 61 | 14 | 0.0 | 0.9 | 0.00 | 0.05 | 0.00 | 79 | 1018.0 |
| 20260508135054 | 60 | 14 | 0.0 | 0.9 | 0.00 | 0.05 | 0.00 | 78 | 1018.0 |
| 20260508134606 | 60 | 1 | 0.0 | 0.9 | 0.00 | 0.05 | 0.00 | 80 | 1018.0 |
| 20260508134053 | 60 | 3 | 0.0 | 0.9 | 0.00 | 0.05 | 0.00 | 80 | 1018.1 |
| 20260508133100 | 60 | 1 | 0.0 | 0.9 | 0.00 | 0.05 | 0.00 | 81 | 1018.2 |
| 20260508132549 | 59 | 1 | 0.0 | 0.9 | 0.00 | 0.05 | 0.00 | 83 | 1018.1 |
| 20260508132055 | 59 | 1 | 0.0 | 0.9 | 0.00 | 0.05 | 0.00 | 84 | 1018.1 |
| 20260508131056 | 58 | 212 | 0.0 | 0.9 | 0.00 | 0.05 | 0.00 | 84 | 1017.9 |
| 20260508130547 | 58 | 266 | 0.0 | 0.9 | 0.00 | 0.05 | 0.00 | 84 | 1018.0 |
| 20260508130058 | 58 | 264 | 0.0 | 0.9 | 0.00 | 0.05 | 0.00 | 85 | 1018.0 |
| 20260508124544 | 57 | 264 | 0.0 | 0.9 | 0.00 | 0.05 | 0.00 | 85 | 1017.9 |
| 20260508124056 | 57 | 264 | 0.0 | 0.9 | 0.00 | 0.05 | 0.00 | 87 | 1017.9 |
| 20260508123607 | 57 | 264 | 0.0 | 0.9 | 0.00 | 0.05 | 0.00 | 87 | 1017.8 |
| 20260508122600 | 56 | 242 | 0.0 | 0.0 | 0.00 | 0.05 | 0.00 | 90 | 1017.9 |
| 20260508122049 | 56 | 242 | 0.0 | 0.0 | 0.00 | 0.05 | 0.00 | 92 | 1017.7 |
| 20260508121552 | 55 | 242 | 0.0 | 0.0 | 0.00 | 0.05 | 0.00 | 93 | 1017.8 |
| 20260508121100 | 55 | 242 | 0.0 | 0.0 | 0.00 | 0.05 | 0.00 | 94 | 1017.7 |
| 20260508120549 | 54 | 242 | 0.0 | 0.0 | 0.00 | 0.05 | 0.00 | 94 | 1017.7 |
| 20260508120058 | 54 | 37 | 0.0 | 0.0 | 0.00 | 0.05 | 0.00 | 94 | 1017.7 |
| 20260508115055 | 53 | 37 | 0.0 | 0.0 | 0.00 | 0.09 | 0.00 | 94 | 1017.6 |
| 20260508114547 | 53 | 37 | 0.0 | 0.0 | 0.00 | 0.09 | 0.00 | 94 | 1017.5 |
| 20260508114057 | 53 | 37 | 0.0 | 0.0 | 0.00 | 0.09 | 0.00 | 94 | 1017.3 |
| 20260508113056 | 53 | 37 | 0.0 | 0.0 | 0.00 | 0.09 | 0.00 | 94 | 1017.0 |
| 20260508112544 | 53 | 37 | 0.0 | 0.0 | 0.00 | 0.09 | 0.00 | 94 | 1016.8 |
| 20260508112055 | 53 | 37 | 0.0 | 0.0 | 0.00 | 0.09 | 0.00 | 94 | 1016.7 |
| 20260508111601 | 53 | 37 | 0.0 | 0.0 | 0.00 | 0.09 | 0.00 | 93 | 1016.6 |
| 20260508111051 | 53 | 37 | 0.0 | 0.0 | 0.00 | 0.09 | 0.00 | 93 | 1016.5 |
| 20260508110603 | 53 | 37 | 0.0 | 0.0 | 0.00 | 0.09 | 0.00 | 93 | 1016.3 |
| 20260508110126 | 53 | 37 | 0.0 | 0.0 | 0.00 | 0.09 | 0.00 | 94 | 1016.2 |
| 20260508110024 | 52 | 37 | 0.0 | 0.0 | 0.00 | 0.09 | 0.00 | 94 | 1015.5 |
| 20260508105547 | 53 | 37 | 0.0 | 0.0 | 0.00 | 0.09 | 0.00 | 93 | 1016.1 |
| 20260508105059 | 53 | 37 | 0.0 | 0.0 | 0.00 | 0.09 | 0.00 | 93 | 1016.1 |
| 20260508104545 | 53 | 37 | 0.0 | 0.0 | 0.00 | 0.09 | 0.00 | 93 | 1016.1 |
| 20260508104053 | 53 | 37 | 0.0 | 0.0 | 0.00 | 0.09 | 0.00 | 93 | 1016.0 |
| 20260508103602 | 53 | 37 | 0.0 | 0.0 | 0.00 | 0.09 | 0.00 | 93 | 1015.8 |
| 20260508103515 | 53 | 37 | 0.0 | 0.0 | 0.00 | 0.09 | 0.00 | 93 | 1015.1 |
| 20260508102553 | 53 | 37 | 0.0 | 0.0 | 0.00 | 0.09 | 0.00 | 93 | 1015.5 |
| 20260508102510 | 53 | 37 | 0.0 | 0.0 | 0.00 | 0.09 | 0.00 | 93 | 1014.8 |
| 20260508101059 | 53 | 37 | 0.0 | 0.0 | 0.00 | 0.09 | 0.00 | 93 | 1015.4 |
| 20260508100551 | 53 | 37 | 0.0 | 0.0 | 0.00 | 0.09 | 0.00 | 93 | 1015.4 |
| 20260508100100 | 53 | 37 | 0.0 | 0.0 | 0.00 | 0.09 | 0.00 | 92 | 1015.5 |
| 20260508095547 | 53 | 37 | 0.0 | 0.0 | 0.00 | 0.16 | 0.00 | 92 | 1015.4 |
| 20260508095057 | 54 | 37 | 0.0 | 0.0 | 0.00 | 0.16 | 0.00 | 92 | 1015.3 |
| 20260508094603 | 54 | 37 | 0.0 | 0.0 | 0.00 | 0.16 | 0.00 | 92 | 1015.2 |
| 20260508093603 | 54 | 37 | 0.0 | 0.0 | 0.00 | 0.16 | 0.00 | 92 | 1015.1 |
| 20260508093054 | 54 | 37 | 0.0 | 0.0 | 0.00 | 0.16 | 0.00 | 92 | 1015.2 |
| 20260508092602 | 54 | 37 | 0.0 | 0.0 | 0.00 | 0.16 | 0.00 | 91 | 1015.1 |
| 20260508092052 | 54 | 37 | 0.0 | 0.0 | 0.00 | 0.16 | 0.00 | 91 | 1015.0 |
| 20260508091600 | 54 | 37 | 0.0 | 0.0 | 0.00 | 0.16 | 0.00 | 91 | 1014.9 |
| 20260508091048 | 55 | 37 | 0.0 | 0.0 | 0.00 | 0.16 | 0.00 | 91 | 1015.0 |
| 20260508090105 | 55 | 37 | 0.0 | 0.0 | 0.00 | 0.16 | 0.00 | 91 | 1015.0 |
| 20260508085551 | 56 | 37 | 0.0 | 0.0 | 0.00 | 0.25 | 0.00 | 91 | 1015.0 |
| 20260508085058 | 56 | 37 | 0.0 | 0.0 | 0.00 | 0.25 | 0.00 | 91 | 1015.0 |
| 20260508084057 | 56 | 37 | 0.0 | 0.0 | 0.00 | 0.25 | 0.00 | 91 | 1014.9 |
| 20260508083602 | 56 | 37 | 0.0 | 0.0 | 0.00 | 0.25 | 0.00 | 91 | 1014.8 |
| 20260508083050 | 56 | 37 | 0.0 | 0.0 | 0.00 | 0.25 | 0.00 | 91 | 1014.9 |
| 20260508082558 | 56 | 37 | 0.0 | 0.0 | 0.00 | 0.25 | 0.00 | 91 | 1014.9 |
| 20260508081051 | 56 | 37 | 0.0 | 0.0 | 0.00 | 0.25 | 0.00 | 90 | 1014.7 |
| 20260508075049 | 56 | 37 | 0.0 | 0.0 | 0.00 | 0.26 | 0.00 | 90 | 1014.5 |
| 20260508074602 | 56 | 37 | 0.0 | 0.0 | 0.00 | 0.26 | 0.00 | 91 | 1014.6 |
| 20260508074050 | 56 | 37 | 0.0 | 0.0 | 0.00 | 0.26 | 0.00 | 90 | 1014.7 |
| 20260508073559 | 56 | 37 | 0.0 | 0.0 | 0.00 | 0.26 | 0.00 | 91 | 1014.6 |
| 20260508073102 | 56 | 37 | 0.0 | 0.0 | 0.00 | 0.26 | 0.00 | 91 | 1014.7 |
| 20260508072546 | 56 | 37 | 0.0 | 0.0 | 0.00 | 0.26 | 0.00 | 90 | 1014.7 |
| 20260508072054 | 56 | 37 | 0.0 | 0.0 | 0.00 | 0.26 | 0.00 | 91 | 1014.6 |
| 20260508071603 | 56 | 37 | 0.0 | 0.0 | 0.00 | 0.26 | 0.00 | 91 | 1014.7 |
| 20260508071053 | 56 | 37 | 0.0 | 0.0 | 0.00 | 0.26 | 0.00 | 91 | 1014.7 |
| 20260508070545 | 56 | 37 | 0.0 | 0.0 | 0.00 | 0.26 | 0.00 | 92 | 1014.8 |
| 20260508070053 | 56 | 37 | 0.0 | 0.0 | 0.00 | 0.26 | 0.00 | 92 | 1014.8 |
| 20260508065602 | 56 | 37 | 0.0 | 0.0 | 0.00 | 0.30 | 0.00 | 92 | 1015.0 |
| 20260508065052 | 56 | 37 | 0.0 | 0.0 | 0.00 | 0.30 | 0.00 | 92 | 1015.0 |
| 20260508064049 | 56 | 37 | 0.0 | 0.0 | 0.00 | 0.30 | 0.00 | 92 | 1015.2 |
| 20260508063517 | 56 | 37 | 0.0 | 0.0 | 0.00 | 0.30 | 0.00 | 92 | 1014.3 |
| 20260508062552 | 57 | 37 | 0.0 | 0.0 | 0.00 | 0.30 | 0.00 | 92 | 1015.0 |
| 20260508062101 | 57 | 37 | 0.0 | 0.0 | 0.00 | 0.30 | 0.00 | 92 | 1015.2 |
| 20260508061549 | 57 | 37 | 0.0 | 0.0 | 0.00 | 0.30 | 0.00 | 92 | 1015.2 |
| 20260508061054 | 57 | 37 | 0.0 | 0.0 | 0.00 | 0.30 | 0.00 | 92 | 1015.3 |
| 20260508060603 | 57 | 37 | 0.0 | 0.0 | 0.00 | 0.30 | 0.00 | 92 | 1015.4 |
| 20260508060054 | 57 | 37 | 0.0 | 0.0 | 0.00 | 0.30 | 0.00 | 92 | 1015.2 |
| 20260508055600 | 57 | 37 | 0.0 | 0.0 | 0.00 | 0.42 | 0.00 | 92 | 1015.3 |
| 20260508055049 | 57 | 37 | 0.0 | 0.0 | 0.00 | 0.42 | 0.00 | 92 | 1015.3 |
| 20260508054558 | 57 | 37 | 0.0 | 0.0 | 0.00 | 0.42 | 0.00 | 92 | 1015.1 |
| 20260508054050 | 57 | 37 | 0.0 | 0.0 | 0.00 | 0.42 | 0.00 | 92 | 1015.4 |
| 20260508053600 | 57 | 37 | 0.0 | 0.0 | 0.00 | 0.42 | 0.00 | 92 | 1015.3 |
| 20260508053106 | 57 | 37 | 0.0 | 0.0 | 0.00 | 0.42 | 0.00 | 92 | 1015.3 |
| 20260508052554 | 57 | 37 | 0.0 | 0.0 | 0.00 | 0.42 | 0.00 | 92 | 1015.3 |
| 20260508052045 | 57 | 37 | 0.0 | 0.0 | 0.00 | 0.42 | 0.00 | 92 | 1015.3 |
| 20260508051049 | 57 | 37 | 0.0 | 0.0 | 0.00 | 0.42 | 0.00 | 91 | 1015.3 |
| 20260508050600 | 58 | 37 | 0.0 | 0.0 | 0.00 | 0.42 | 0.00 | 91 | 1015.3 |
| 20260508050107 | 58 | 37 | 0.0 | 0.0 | 0.00 | 0.42 | 0.00 | 91 | 1015.3 |
| 20260508045101 | 58 | 37 | 0.0 | 0.0 | 0.00 | 0.50 | 0.00 | 90 | 1015.5 |
| 20260508044551 | 58 | 37 | 0.0 | 0.0 | 0.00 | 0.50 | 0.00 | 91 | 1015.5 |
| 20260508044059 | 58 | 37 | 0.0 | 0.0 | 0.00 | 0.50 | 0.00 | 90 | 1015.3 |